createdAt,value
2018-06-19T00:00:59.757Z,17.10
2018-06-19T00:02:00.623Z,17.90
2018-06-19T00:02:59.756Z,16.90
2018-06-19T00:03:59.766Z,17.70
2018-06-19T00:04:59.757Z,17.70
2018-06-19T00:05:59.766Z,17.60
2018-06-19T00:06:59.773Z,18.10
2018-06-19T00:07:59.751Z,17.10
2018-06-19T00:08:59.788Z,17.80
2018-06-19T00:09:59.783Z,17.80
2018-06-19T00:10:59.768Z,18.60
2018-06-19T00:11:59.859Z,18.40
2018-06-19T00:12:59.786Z,18.60
2018-06-19T00:13:59.722Z,17.10
2018-06-19T00:14:59.777Z,17.80
2018-06-19T00:15:59.807Z,18.00
2018-06-19T00:16:59.792Z,18.80
2018-06-19T00:17:59.783Z,18.40
2018-06-19T00:18:59.766Z,18.80
2018-06-19T00:19:59.818Z,19.70
2018-06-19T00:20:59.819Z,19.70
2018-06-19T00:21:59.796Z,19.60
2018-06-19T00:22:59.795Z,20.00
2018-06-19T00:23:59.781Z,21.00
2018-06-19T00:24:59.784Z,20.20
2018-06-19T00:25:59.773Z,17.90
2018-06-19T00:26:59.770Z,18.00
2018-06-19T00:27:59.779Z,18.60
2018-06-19T00:28:59.842Z,18.40
2018-06-19T00:29:59.820Z,18.10
2018-06-19T00:30:59.771Z,19.60
2018-06-19T00:31:59.819Z,19.00
2018-06-19T00:32:59.786Z,19.50
2018-06-19T00:33:59.802Z,19.90
2018-06-19T00:34:59.818Z,19.70
2018-06-19T00:35:59.806Z,19.10
2018-06-19T00:36:59.816Z,19.10
2018-06-19T00:37:59.839Z,19.60
2018-06-19T00:38:59.863Z,19.00
2018-06-19T00:39:59.816Z,18.00
2018-06-19T00:40:59.824Z,17.20
2018-06-19T00:41:59.819Z,16.60
2018-06-19T00:43:00.636Z,16.00
2018-06-19T00:43:59.800Z,15.30
2018-06-19T00:44:59.816Z,14.30
2018-06-19T00:45:59.847Z,12.10
2018-06-19T00:46:59.821Z,12.30
2018-06-19T00:47:59.821Z,12.20
2018-06-19T00:48:59.877Z,11.90
2018-06-19T00:49:59.812Z,11.00
2018-06-19T00:50:59.823Z,11.60
2018-06-19T00:51:59.823Z,11.60
2018-06-19T00:52:59.847Z,11.10
2018-06-19T00:53:59.844Z,10.00
2018-06-19T00:54:59.824Z,10.50
2018-06-19T00:55:59.832Z,10.20
2018-06-19T00:56:59.834Z,9.60
2018-06-19T00:57:59.854Z,9.40
2018-06-19T00:58:59.848Z,9.70
2018-06-19T00:59:59.852Z,9.00
2018-06-19T01:00:59.870Z,8.80
2018-06-19T01:01:59.919Z,9.00
2018-06-19T01:02:59.859Z,8.20
2018-06-19T01:03:59.846Z,8.10
2018-06-19T01:04:59.861Z,7.80
2018-06-19T01:05:59.886Z,7.20
2018-06-19T01:06:59.872Z,7.30
2018-06-19T01:07:59.848Z,6.90
2018-06-19T01:08:59.870Z,7.50
2018-06-19T01:09:59.851Z,6.90
2018-06-19T01:10:59.874Z,7.20
2018-06-19T01:11:59.869Z,6.90
2018-06-19T01:12:59.876Z,6.50
2018-06-19T01:13:59.878Z,6.90
2018-06-19T01:14:59.857Z,8.30
2018-06-19T01:15:59.884Z,6.60
2018-06-19T01:16:59.925Z,6.30
2018-06-19T01:17:59.968Z,8.20
2018-06-19T01:19:00.700Z,6.70
2018-06-19T01:20:00.034Z,6.10
2018-06-19T01:21:00.054Z,6.30
2018-06-19T01:21:59.961Z,6.90
2018-06-19T01:22:59.898Z,6.90
2018-06-19T01:23:59.891Z,5.80
2018-06-19T01:24:59.882Z,6.30
2018-06-19T01:25:59.929Z,6.70
2018-06-19T01:26:59.927Z,6.60
2018-06-19T01:27:59.927Z,7.10
2018-06-19T01:28:59.939Z,8.10
2018-06-19T01:29:59.976Z,7.30
2018-06-19T01:30:59.970Z,7.00
2018-06-19T01:31:59.919Z,7.20
2018-06-19T01:33:00.016Z,7.10
2018-06-19T01:33:59.939Z,7.10
2018-06-19T01:35:00.021Z,7.60
2018-06-19T01:35:59.980Z,7.50
2018-06-19T01:36:59.939Z,7.70
2018-06-19T01:37:59.983Z,7.20
2018-06-19T01:38:59.974Z,7.40
2018-06-19T01:40:00.033Z,7.60
2018-06-19T01:40:59.992Z,8.30
2018-06-19T01:41:59.929Z,7.90
2018-06-19T01:42:59.937Z,7.30
2018-06-19T01:43:59.968Z,7.30
2018-06-19T01:44:59.973Z,7.90
2018-06-19T01:45:59.969Z,7.80
2018-06-19T01:46:59.984Z,8.00
2018-06-19T01:47:59.987Z,7.90
2018-06-19T01:48:59.942Z,9.50
2018-06-19T01:50:00.009Z,8.30
2018-06-19T01:51:00.000Z,7.80
2018-06-19T01:52:00.055Z,7.50
2018-06-19T01:53:00.074Z,7.20
2018-06-19T01:54:00.054Z,7.60
2018-06-19T01:55:00.084Z,7.70
2018-06-19T01:56:00.105Z,7.30
2018-06-19T01:57:00.041Z,7.30
2018-06-19T01:58:00.044Z,7.70
2018-06-19T01:59:00.073Z,7.60
2018-06-19T02:00:00.110Z,8.60
2018-06-19T02:01:00.010Z,7.70
2018-06-19T02:02:00.019Z,7.20
2018-06-19T02:02:59.980Z,7.20
2018-06-19T02:04:00.009Z,6.80
2018-06-19T02:04:59.998Z,6.40
2018-06-19T02:05:59.996Z,6.90
2018-06-19T02:06:59.981Z,7.50
2018-06-19T02:07:59.990Z,7.20
2018-06-19T02:08:59.984Z,6.60
2018-06-19T02:10:00.016Z,6.60
2018-06-19T02:11:00.028Z,6.10
2018-06-19T02:12:00.042Z,6.60
2018-06-19T02:12:59.995Z,6.30
2018-06-19T02:13:59.992Z,6.90
2018-06-19T02:15:00.024Z,7.00
2018-06-19T02:16:00.000Z,7.00
2018-06-19T02:17:00.025Z,6.10
2018-06-19T02:18:00.144Z,7.10
2018-06-19T02:19:00.029Z,6.20
2018-06-19T02:20:00.672Z,7.00
2018-06-19T02:21:00.050Z,6.30
2018-06-19T02:22:00.035Z,7.60
2018-06-19T02:23:00.034Z,7.40
2018-06-19T02:24:00.674Z,6.80
2018-06-19T02:25:00.048Z,5.90
2018-06-19T02:26:00.050Z,5.40
2018-06-19T02:27:00.047Z,6.50
2018-06-19T02:28:00.056Z,5.60
2018-06-19T02:29:00.060Z,6.60
2018-06-19T02:30:00.064Z,7.60
2018-06-19T02:31:00.038Z,8.00
2018-06-19T02:32:00.042Z,5.70
2018-06-19T02:33:00.048Z,6.40
2018-06-19T02:34:00.036Z,6.00
2018-06-19T02:35:00.055Z,6.70
2018-06-19T02:36:00.079Z,5.40
2018-06-19T02:37:00.060Z,6.30
2018-06-19T02:38:00.072Z,5.70
2018-06-19T02:39:00.121Z,6.70
2018-06-19T02:40:00.072Z,6.10
2018-06-19T02:41:00.057Z,5.90
2018-06-19T02:42:00.071Z,5.50
2018-06-19T02:43:00.091Z,7.50
2018-06-19T02:44:00.079Z,5.60
2018-06-19T02:45:00.101Z,5.90
2018-06-19T02:46:00.097Z,6.70
2018-06-19T02:47:00.089Z,6.00
2018-06-19T02:48:00.092Z,5.40
2018-06-19T02:49:00.079Z,6.60
2018-06-19T02:50:00.088Z,6.60
2018-06-19T02:51:00.688Z,7.40
2018-06-19T02:52:00.251Z,6.20
2018-06-19T02:53:00.103Z,5.90
2018-06-19T02:54:00.139Z,5.80
2018-06-19T02:55:00.121Z,6.70
2018-06-19T02:56:00.095Z,6.40
2018-06-19T02:57:00.101Z,5.90
2018-06-19T02:58:00.134Z,5.70
2018-06-19T02:59:00.106Z,5.80
2018-06-19T03:00:00.143Z,5.40
2018-06-19T03:01:00.139Z,5.40
2018-06-19T03:02:00.133Z,6.50
2018-06-19T03:03:00.135Z,6.40
2018-06-19T03:04:00.138Z,6.60
2018-06-19T03:05:00.128Z,5.40
2018-06-19T03:06:00.137Z,5.60
2018-06-19T03:07:00.133Z,6.30
2018-06-19T03:08:00.140Z,7.70
2018-06-19T03:09:00.251Z,6.30
2018-06-19T03:10:00.166Z,6.00
2018-06-19T03:11:00.142Z,5.20
2018-06-19T03:12:00.134Z,7.30
2018-06-19T03:13:00.135Z,6.30
2018-06-19T03:14:00.134Z,6.30
2018-06-19T03:15:00.190Z,6.90
2018-06-19T03:16:00.130Z,5.30
2018-06-19T03:17:00.131Z,6.20
2018-06-19T03:18:00.207Z,5.50
2018-06-19T03:19:00.171Z,7.10
2018-06-19T03:20:00.176Z,6.20
2018-06-19T03:21:00.187Z,6.70
2018-06-19T03:22:00.274Z,8.00
2018-06-19T03:23:00.163Z,7.00
2018-06-19T03:24:00.176Z,6.00
2018-06-19T03:25:00.177Z,6.80
2018-06-19T03:26:00.189Z,4.80
2018-06-19T03:27:00.172Z,6.60
2018-06-19T03:28:00.193Z,5.30
2018-06-19T03:29:00.202Z,5.80
2018-06-19T03:30:00.192Z,6.70
2018-06-19T03:31:00.203Z,5.70
2018-06-19T03:32:00.192Z,6.10
2018-06-19T03:33:00.192Z,5.70
2018-06-19T03:34:00.231Z,7.30
2018-06-19T03:35:00.172Z,5.30
2018-06-19T03:36:00.199Z,5.90
2018-06-19T03:37:00.187Z,6.20
2018-06-19T03:38:00.192Z,7.90
2018-06-19T03:39:00.200Z,7.30
2018-06-19T03:40:00.210Z,6.10
2018-06-19T03:41:00.206Z,7.50
2018-06-19T03:42:00.206Z,7.00
2018-06-19T03:43:00.229Z,7.50
2018-06-19T03:44:00.703Z,5.30
2018-06-19T03:45:00.221Z,5.60
2018-06-19T03:46:00.243Z,7.80
2018-06-19T03:47:00.232Z,6.30
2018-06-19T03:48:00.236Z,5.60
2018-06-19T03:49:00.248Z,6.20
2018-06-19T03:50:00.245Z,6.60
2018-06-19T03:51:00.239Z,7.90
2018-06-19T03:52:00.228Z,5.70
2018-06-19T03:53:00.240Z,6.40
2018-06-19T03:54:00.281Z,6.50
2018-06-19T03:55:00.291Z,7.60
2018-06-19T03:56:00.255Z,7.80
2018-06-19T03:57:00.229Z,6.70
2018-06-19T03:58:01.833Z,7.20
2018-06-19T03:59:00.259Z,6.30
2018-06-19T04:00:00.245Z,5.90
2018-06-19T04:01:00.254Z,6.50
2018-06-19T04:02:00.306Z,8.70
2018-06-19T04:03:00.274Z,7.00
2018-06-19T04:04:00.267Z,7.70
2018-06-19T04:05:00.275Z,7.20
2018-06-19T04:06:00.325Z,7.40
2018-06-19T04:07:00.309Z,7.00
2018-06-19T04:08:00.297Z,7.60
2018-06-19T04:09:00.312Z,7.50
2018-06-19T04:10:00.291Z,7.20
2018-06-19T04:11:00.272Z,7.60
2018-06-19T04:12:00.288Z,8.20
2018-06-19T04:13:00.259Z,7.20
2018-06-19T04:14:00.278Z,6.20
2018-06-19T04:15:00.267Z,7.00
2018-06-19T04:16:00.310Z,6.40
2018-06-19T04:17:00.296Z,8.10
2018-06-19T04:18:00.344Z,6.30
2018-06-19T04:19:00.291Z,8.10
2018-06-19T04:20:00.308Z,6.10
2018-06-19T04:21:00.308Z,7.90
2018-06-19T04:22:01.217Z,8.10
2018-06-19T04:23:00.324Z,9.30
2018-06-19T04:24:00.290Z,8.10
2018-06-19T04:25:00.329Z,10.00
2018-06-19T04:26:00.343Z,6.80
2018-06-19T04:27:00.304Z,7.90
2018-06-19T04:28:00.309Z,9.60
2018-06-19T04:29:00.324Z,7.20
2018-06-19T04:30:00.337Z,7.20
2018-06-19T04:31:00.328Z,6.70
2018-06-19T04:32:00.333Z,8.50
2018-06-19T04:33:00.354Z,9.40
2018-06-19T04:34:00.332Z,7.20
2018-06-19T04:35:00.313Z,7.90
2018-06-19T04:36:00.338Z,7.20
2018-06-19T04:37:00.361Z,9.60
2018-06-19T04:38:00.353Z,8.80
2018-06-19T04:39:00.393Z,8.50
2018-06-19T04:40:00.370Z,7.60
2018-06-19T04:41:00.322Z,6.30
2018-06-19T04:42:00.391Z,6.80
2018-06-19T04:43:00.352Z,8.60
2018-06-19T04:44:00.444Z,9.50
2018-06-19T04:45:00.363Z,7.30
2018-06-19T04:46:00.408Z,7.40
2018-06-19T04:47:00.374Z,8.40
2018-06-19T04:48:00.378Z,9.40
2018-06-19T04:49:00.350Z,7.00
2018-06-19T04:50:02.333Z,8.20
2018-06-19T04:51:00.366Z,8.20
2018-06-19T04:52:00.408Z,8.00
2018-06-19T04:53:01.230Z,9.10
2018-06-19T04:54:00.377Z,7.10
2018-06-19T04:55:00.369Z,8.70
2018-06-19T04:56:00.376Z,6.40
2018-06-19T04:57:00.420Z,7.10
2018-06-19T04:58:00.431Z,7.50
2018-06-19T04:59:00.430Z,8.00
2018-06-19T05:00:00.451Z,8.60
2018-06-19T05:01:00.389Z,9.80
2018-06-19T05:02:00.417Z,7.90
2018-06-19T05:03:00.392Z,8.50
2018-06-19T05:04:00.399Z,8.70
2018-06-19T05:05:00.388Z,9.10
2018-06-19T05:06:00.406Z,8.70
2018-06-19T05:07:00.382Z,8.40
2018-06-19T05:08:00.426Z,7.80
2018-06-19T05:09:00.409Z,10.00
2018-06-19T05:10:00.395Z,7.90
2018-06-19T05:11:00.403Z,9.70
2018-06-19T05:12:00.411Z,6.30
2018-06-19T05:13:00.428Z,7.30
2018-06-19T05:14:00.420Z,9.50
2018-06-19T05:15:00.429Z,9.80
2018-06-19T05:16:00.453Z,7.50
2018-06-19T05:17:00.495Z,7.50
2018-06-19T05:18:00.408Z,7.90
2018-06-19T05:19:00.438Z,7.60
2018-06-19T05:20:00.483Z,6.20
2018-06-19T05:21:00.451Z,8.40
2018-06-19T05:22:00.472Z,8.20
2018-06-19T05:23:00.449Z,7.90
2018-06-19T05:24:00.443Z,9.50
2018-06-19T05:25:00.470Z,6.70
2018-06-19T05:26:00.487Z,9.90
2018-06-19T05:27:00.457Z,8.20
2018-06-19T05:28:00.497Z,9.90
2018-06-19T05:29:00.458Z,8.70
2018-06-19T05:30:00.471Z,8.80
2018-06-19T05:31:00.480Z,7.40
2018-06-19T05:32:00.451Z,8.40
2018-06-19T05:33:00.473Z,8.50
2018-06-19T05:34:00.486Z,8.70
2018-06-19T05:35:00.501Z,7.40
2018-06-19T05:36:00.530Z,9.00
2018-06-19T05:37:00.459Z,10.10
2018-06-19T05:38:00.460Z,8.20
2018-06-19T05:39:00.508Z,8.70
2018-06-19T05:40:00.490Z,9.80
2018-06-19T05:41:00.491Z,8.50
2018-06-19T05:42:00.502Z,8.60
2018-06-19T05:43:00.481Z,7.80
2018-06-19T05:44:00.518Z,9.20
2018-06-19T05:45:00.492Z,9.70
2018-06-19T05:46:00.518Z,8.70
2018-06-19T05:47:00.501Z,8.50
2018-06-19T05:48:00.514Z,9.40
2018-06-19T05:49:00.522Z,7.60
2018-06-19T05:50:00.521Z,8.70
2018-06-19T05:51:00.602Z,10.00
2018-06-19T05:52:00.537Z,9.10
2018-06-19T05:53:00.517Z,9.90
2018-06-19T05:54:00.525Z,11.70
2018-06-19T05:55:00.521Z,8.80
2018-06-19T05:56:00.563Z,9.40
2018-06-19T05:57:00.527Z,9.10
2018-06-19T05:58:00.548Z,11.00
2018-06-19T05:59:00.560Z,10.30
2018-06-19T06:00:01.258Z,9.40
2018-06-19T06:01:00.540Z,9.60
2018-06-19T06:02:00.696Z,8.90
2018-06-19T06:03:01.253Z,8.90
2018-06-19T06:04:00.594Z,9.90
2018-06-19T06:05:00.668Z,12.20
2018-06-19T06:06:00.562Z,9.70
2018-06-19T06:07:00.566Z,9.90
2018-06-19T06:08:00.565Z,8.40
2018-06-19T06:09:00.574Z,10.80
2018-06-19T06:10:00.574Z,10.20
2018-06-19T06:11:00.558Z,11.40
2018-06-19T06:12:00.556Z,11.10
2018-06-19T06:13:00.564Z,9.40
2018-06-19T06:14:00.592Z,8.90
2018-06-19T06:15:00.557Z,10.70
2018-06-19T06:16:00.572Z,10.90
2018-06-19T06:17:00.578Z,12.20
2018-06-19T06:18:00.561Z,12.10
2018-06-19T06:19:00.565Z,8.70
2018-06-19T06:20:00.607Z,8.80
2018-06-19T06:21:00.607Z,11.80
2018-06-19T06:22:00.641Z,9.90
2018-06-19T06:23:00.612Z,11.10
2018-06-19T06:24:00.666Z,11.30
2018-06-19T06:25:00.588Z,12.40
2018-06-19T06:26:00.592Z,12.40
2018-06-19T06:27:00.569Z,11.30
2018-06-19T06:28:02.408Z,10.90
2018-06-19T06:29:00.627Z,10.50
2018-06-19T06:30:00.595Z,14.00
2018-06-19T06:31:00.678Z,10.00
2018-06-19T06:32:00.609Z,11.40
2018-06-19T06:33:00.603Z,10.00
2018-06-19T06:34:00.601Z,11.90
2018-06-19T06:35:00.604Z,11.40
2018-06-19T06:36:00.644Z,12.20
2018-06-19T06:37:00.639Z,13.90
2018-06-19T06:38:00.639Z,10.70
2018-06-19T06:39:00.702Z,13.30
2018-06-19T06:40:00.636Z,10.30
2018-06-19T06:41:00.658Z,12.80
2018-06-19T06:42:00.627Z,13.20
2018-06-19T06:43:00.750Z,15.30
2018-06-19T06:44:00.681Z,11.20
2018-06-19T06:45:00.687Z,11.90
2018-06-19T06:46:00.653Z,10.80
2018-06-19T06:47:00.661Z,9.60
2018-06-19T06:48:00.690Z,11.90
2018-06-19T06:49:00.668Z,11.70
2018-06-19T06:50:02.361Z,11.00
2018-06-19T06:51:00.642Z,11.90
2018-06-19T06:52:00.689Z,12.50
2018-06-19T06:53:00.680Z,12.90
2018-06-19T06:54:00.696Z,15.70
2018-06-19T06:55:00.798Z,13.30
2018-06-19T06:56:00.703Z,13.00
2018-06-19T06:57:00.707Z,12.70
2018-06-19T06:58:00.821Z,13.50
2018-06-19T06:59:00.672Z,11.60
2018-06-19T07:00:00.674Z,13.00
2018-06-19T07:01:00.731Z,11.40
2018-06-19T07:02:00.715Z,12.10
2018-06-19T07:03:00.705Z,14.90
2018-06-19T07:04:00.709Z,13.20
2018-06-19T07:05:00.693Z,12.50
2018-06-19T07:06:00.708Z,11.90
2018-06-19T07:07:00.711Z,11.00
2018-06-19T07:08:02.071Z,13.30
2018-06-19T07:09:00.749Z,12.80
2018-06-19T07:10:00.739Z,12.60
2018-06-19T07:11:00.717Z,12.90
2018-06-19T07:12:00.766Z,12.60
2018-06-19T07:13:00.734Z,13.30
2018-06-19T07:14:00.727Z,14.40
2018-06-19T07:15:00.743Z,12.70
2018-06-19T07:16:00.804Z,12.90
2018-06-19T07:17:00.728Z,14.60
2018-06-19T07:18:00.806Z,13.30
2018-06-19T07:19:00.888Z,12.50
2018-06-19T07:20:00.967Z,13.40
2018-06-19T07:21:00.746Z,12.40
2018-06-19T07:22:01.292Z,14.50
2018-06-19T07:23:00.775Z,15.70
2018-06-19T07:24:00.764Z,14.40
2018-06-19T07:25:00.761Z,15.00
2018-06-19T07:26:00.819Z,16.80
2018-06-19T07:27:00.778Z,13.20
2018-06-19T07:28:00.828Z,13.60
2018-06-19T07:29:02.390Z,14.00
2018-06-19T07:30:02.372Z,16.50
2018-06-19T07:31:00.793Z,15.10
2018-06-19T07:32:01.399Z,16.10
2018-06-19T07:33:00.869Z,14.80
2018-06-19T07:34:00.990Z,14.30
2018-06-19T07:35:00.826Z,15.60
2018-06-19T07:36:00.794Z,17.30
2018-06-19T07:37:02.430Z,15.40
2018-06-19T07:38:01.044Z,15.50
2018-06-19T07:39:00.814Z,15.30
2018-06-19T07:40:01.021Z,18.10
2018-06-19T07:41:01.007Z,14.80
2018-06-19T07:42:00.840Z,15.00
2018-06-19T07:43:00.869Z,17.00
2018-06-19T07:44:00.838Z,17.30
2018-06-19T07:45:00.818Z,17.90
2018-06-19T07:46:08.523Z,16.00
2018-06-19T07:48:24.479Z,17.10
2018-06-19T22:01:12.239Z,22.10
2018-06-19T22:01:59.126Z,23.60
2018-06-19T22:02:59.103Z,23.50
2018-06-19T22:04:15.583Z,23.00
2018-06-19T22:04:59.056Z,23.50
2018-06-19T22:05:59.051Z,23.20
2018-06-19T22:06:59.090Z,23.00
2018-06-19T22:07:59.091Z,24.30
2018-06-19T22:08:59.098Z,24.30
2018-06-19T22:09:59.070Z,23.40
2018-06-19T22:10:59.104Z,23.30
2018-06-19T22:11:59.089Z,25.10
2018-06-19T22:12:59.167Z,24.50
2018-06-19T22:13:59.152Z,23.90
2018-06-19T22:14:59.078Z,24.00
2018-06-19T22:15:59.142Z,24.10
2018-06-19T22:16:59.144Z,25.70
2018-06-19T22:17:59.116Z,25.90
2018-06-19T22:18:59.101Z,26.00
2018-06-19T22:19:59.107Z,23.50
2018-06-19T22:20:59.104Z,25.40
2018-06-19T22:21:59.112Z,25.10
2018-06-19T22:22:59.103Z,24.80
2018-06-19T22:23:59.101Z,24.60
2018-06-19T22:24:59.110Z,25.10
2018-06-19T22:25:59.113Z,26.30
2018-06-19T22:26:59.119Z,25.70
2018-06-19T22:27:59.125Z,27.00
2018-06-19T22:28:59.123Z,24.20
2018-06-19T22:29:59.153Z,25.30
2018-06-19T22:30:59.125Z,25.90
2018-06-19T22:31:59.127Z,24.60
2018-06-19T22:32:59.153Z,24.90
2018-06-19T22:33:59.131Z,24.60
2018-06-19T22:34:59.137Z,24.70
2018-06-19T22:35:59.144Z,24.30
2018-06-19T22:36:59.168Z,26.20
2018-06-19T22:37:59.138Z,25.20
2018-06-19T22:38:59.153Z,24.30
2018-06-19T22:39:59.150Z,26.60
2018-06-19T22:40:59.188Z,26.40
2018-06-19T22:41:59.223Z,25.90
2018-06-19T22:42:59.174Z,26.40
2018-06-19T22:43:59.249Z,25.40
2018-06-19T22:44:59.180Z,24.50
2018-06-19T22:45:59.208Z,25.90
2018-06-19T22:46:59.189Z,25.90
2018-06-19T22:47:59.213Z,27.00
2018-06-19T22:48:59.194Z,25.20
2018-06-19T22:49:59.189Z,25.60
2018-06-19T22:50:59.190Z,26.30
2018-06-19T22:51:59.187Z,25.30
2018-06-19T22:52:59.198Z,26.10
2018-06-19T22:53:59.200Z,25.90
2018-06-19T22:54:59.234Z,25.90
2018-06-19T22:55:59.270Z,26.10
2018-06-19T22:56:59.212Z,25.60
2018-06-19T22:57:59.227Z,26.80
2018-06-19T22:58:59.204Z,26.60
2018-06-19T22:59:59.216Z,25.10
2018-06-19T23:00:59.339Z,24.20
2018-06-19T23:01:59.212Z,25.80
2018-06-19T23:02:59.234Z,26.00
2018-06-19T23:03:59.259Z,25.20
2018-06-19T23:04:59.234Z,24.40
2018-06-19T23:05:59.260Z,25.20
2018-06-19T23:06:59.278Z,25.80
2018-06-19T23:07:59.248Z,25.70
2018-06-19T23:08:59.244Z,24.70
2018-06-19T23:09:59.265Z,24.20
2018-06-19T23:10:59.303Z,24.90
2018-06-19T23:11:59.283Z,26.40
2018-06-19T23:12:59.251Z,24.90
2018-06-19T23:13:59.277Z,24.00
2018-06-19T23:14:59.295Z,23.50
2018-06-19T23:15:59.264Z,23.20
2018-06-19T23:16:59.263Z,22.90
2018-06-19T23:17:59.268Z,21.60
2018-06-19T23:18:59.303Z,22.90
2018-06-19T23:19:59.291Z,23.10
2018-06-19T23:20:59.296Z,23.90
2018-06-19T23:21:59.308Z,22.80
2018-06-19T23:22:59.366Z,24.30
2018-06-19T23:23:59.357Z,23.80
2018-06-19T23:24:59.316Z,23.70
2018-06-19T23:25:59.336Z,23.70
2018-06-19T23:26:59.319Z,23.80
2018-06-19T23:27:59.335Z,23.10
2018-06-19T23:28:59.328Z,24.40
2018-06-19T23:29:59.332Z,23.50
2018-06-19T23:30:59.347Z,23.00
2018-06-19T23:31:59.354Z,24.70
2018-06-19T23:32:59.382Z,23.30
2018-06-19T23:33:59.376Z,24.50
2018-06-19T23:34:59.374Z,24.80
2018-06-19T23:35:59.389Z,23.30
2018-06-19T23:36:59.383Z,24.00
2018-06-19T23:37:59.354Z,25.20
2018-06-19T23:38:59.390Z,25.10
2018-06-19T23:39:59.360Z,24.60
2018-06-19T23:40:59.378Z,23.90
2018-06-19T23:41:59.397Z,24.20
2018-06-19T23:42:59.416Z,23.50
2018-06-19T23:43:59.408Z,24.80
2018-06-19T23:44:59.404Z,24.30
2018-06-19T23:45:59.451Z,24.40
2018-06-19T23:46:59.403Z,23.30
2018-06-19T23:47:59.400Z,22.30
2018-06-19T23:48:59.374Z,23.50
2018-06-19T23:49:59.404Z,24.10
2018-06-19T23:50:59.438Z,23.90
2018-06-19T23:51:59.429Z,24.70
2018-06-19T23:52:59.395Z,24.80
2018-06-19T23:53:59.458Z,23.90
2018-06-19T23:54:59.429Z,23.60
2018-06-19T23:55:59.534Z,23.20
2018-06-19T23:56:59.391Z,23.60
2018-06-19T23:57:59.399Z,22.70
2018-06-19T23:58:59.437Z,23.50
2018-06-19T23:59:59.471Z,23.10
